»·PEaware :: UAL3227 KOTH-KSEA

UAL3227 :: KOTH-KSEA

FLIGHT INFORMATION

Flight Status: Arrived
Operator:
United Airlines
More flights by this operator :: More flights under this callsign
Pilot: Anonymous 18910 (18910)
Aircraft: AIRBUS A320
(A320)
More flights by this aircraft type
Origin: KOTH North Bend Mun
United States
Destination: KSEA Seattle-Tacoma Intl
United States
More flights between these airports :: More routes between these airports
Route: OTH6 GAMMA LANKE KEIKO HAWKZ6
File this flight plan on PilotEdge
Remarks:
Altitude:
(Current/Filed)
33,000ft
Speed:
(Current/Filed)
300kts
Departed: 10-Aug-18 07:11 PM
Arrived: 10-Aug-18 07:58 PM
Distance/Time
Traveled:
255nm/0:47
Distance/Time
To Go:
Arrived

Flight Plot

Page will automatically refresh every two minutes.

Flight plan parsing failed; only flown route is shown


Map Options




Map Legend


Flown Route
Filed Route
Departure Airport
Arrival Airport
Navaid (VOR, NDB)
Fix

Horizontal Profiles

Position Reports

Time Latitude Longitude Heading Altitude Ground
Speed
10-Aug-18 18:56 43.416870 -124.249560 211 13ft 0kts
10-Aug-18 18:57 43.416870 -124.249560 211 13ft 0kts
10-Aug-18 18:58 43.416870 -124.249560 211 13ft 0kts
10-Aug-18 18:59 43.416870 -124.249560 211 13ft 0kts
10-Aug-18 19:00 43.416870 -124.249560 211 13ft 0kts
10-Aug-18 19:01 43.416870 -124.249560 211 13ft 0kts
10-Aug-18 19:02 43.416870 -124.249560 211 13ft 0kts
10-Aug-18 19:03 43.416870 -124.249560 211 13ft 0kts
10-Aug-18 19:04 43.416870 -124.249560 211 13ft 0kts
10-Aug-18 19:05 43.416976 -124.249473 220 13ft 2kts
10-Aug-18 19:06 43.416986 -124.249026 301 13ft 0kts
10-Aug-18 19:07 43.416986 -124.249027 301 13ft 0kts
10-Aug-18 19:08 43.417288 -124.249311 333 13ft 0kts
10-Aug-18 19:09 43.418853 -124.247510 60 13ft 18kts
10-Aug-18 19:10 43.421021 -124.242167 60 13ft 27kts
10-Aug-18 19:11 43.422317 -124.240798 334 13ft 11kts
10-Aug-18 19:12 43.421412 -124.244280 240 14ft 75kts
10-Aug-18 19:13 43.408073 -124.295198 287 2198ft 169kts
10-Aug-18 19:14 43.456527 -124.287175 71 5061ft 249kts
10-Aug-18 19:15 43.444331 -124.203678 91 8927ft 247kts
10-Aug-18 19:16 43.512390 -124.155466 359 10878ft 356kts
10-Aug-18 19:17 43.620688 -124.149091 1 12523ft 419kts
10-Aug-18 19:18 43.738987 -124.138532 4 14978ft 439kts
10-Aug-18 19:19 43.860360 -124.101161 12 17132ft 459kts
10-Aug-18 19:20 43.986119 -124.059856 12 19143ft 475kts
10-Aug-18 19:21 44.114187 -124.017566 12 20989ft 489kts
10-Aug-18 19:22 44.246802 -123.973569 12 22606ft 500kts
10-Aug-18 19:23 44.383726 -123.927917 12 24040ft 513kts
10-Aug-18 19:24 44.523693 -123.881038 12 25450ft 523kts
10-Aug-18 19:25 44.665020 -123.833458 12 26732ft 532kts
10-Aug-18 19:26 44.807855 -123.778373 20 27892ft 541kts
10-Aug-18 19:27 44.948019 -123.707988 20 29355ft 539kts
10-Aug-18 19:28 45.087626 -123.637569 20 30846ft 537kts
10-Aug-18 19:29 45.224366 -123.568191 20 32140ft 534kts
10-Aug-18 19:30 45.363388 -123.497286 20 33112ft 533kts
10-Aug-18 19:31 45.501637 -123.426417 20 33131ft 532kts
10-Aug-18 19:32 45.640022 -123.355098 20 32989ft 533kts
10-Aug-18 19:33 45.752654 -123.296785 21 33012ft 533kts
10-Aug-18 19:34 45.913599 -123.213015 21 33098ft 531kts
10-Aug-18 19:35 46.051347 -123.139526 21 33095ft 528kts
10-Aug-18 19:36 46.159091 -123.081360 21 32718ft 530kts
10-Aug-18 19:37 46.295235 -123.007533 22 27458ft 545kts
10-Aug-18 19:38 46.393700 -122.954034 22 24695ft 507kts
10-Aug-18 19:39 46.507880 -122.891722 22 22354ft 475kts
10-Aug-18 19:40 46.648433 -122.814306 22 19320ft 472kts
10-Aug-18 19:41 46.743468 -122.761902 22 18255ft 441kts
10-Aug-18 19:42 46.836840 -122.677551 42 17188ft 400kts
10-Aug-18 19:43 46.919866 -122.582475 40 15074ft 362kts
10-Aug-18 19:44 47.005259 -122.517964 8 14830ft 351kts
10-Aug-18 19:45 47.099713 -122.496260 5 12269ft 345kts
10-Aug-18 19:46 47.175943 -122.482673 5 11043ft 329kts
10-Aug-18 19:47 47.244866 -122.471549 3 10265ft 324kts
10-Aug-18 19:48 47.326073 -122.459319 4 8192ft 301kts
10-Aug-18 19:49 47.401376 -122.455407 357 7316ft 268kts
10-Aug-18 19:50 47.473200 -122.455396 358 6351ft 277kts
10-Aug-18 19:51 47.547992 -122.455638 357 5069ft 279kts
10-Aug-18 19:52 47.614996 -122.431312 54 3561ft 246kts
10-Aug-18 19:53 47.624056 -122.346961 97 2999ft 196kts
10-Aug-18 19:54 47.602597 -122.304421 186 2725ft 132kts
10-Aug-18 19:55 47.567962 -122.306834 182 2482ft 130kts
10-Aug-18 19:56 47.533295 -122.307143 182 1817ft 130kts
10-Aug-18 19:57 47.498971 -122.307449 182 1164ft 129kts
10-Aug-18 19:58 47.462783 -122.307741 181 463ft 129kts
10-Aug-18 19:59 47.449638 -122.306267 168 442ft 8kts
10-Aug-18 20:00 47.444680 -122.306351 180 442ft 25kts
10-Aug-18 20:01 47.439918 -122.303977 90 442ft 18kts
10-Aug-18 20:02 47.440876 -122.300348 44 442ft 4kts
10-Aug-18 20:03 47.440929 -122.300268 45 442ft 0kts
10-Aug-18 20:04 47.440929 -122.300268 45 442ft 0kts
10-Aug-18 20:05 47.440929 -122.300268 45 442ft 0kts
10-Aug-18 20:06 47.440929 -122.300268 45 442ft 0kts
10-Aug-18 20:07 47.440929 -122.300268 45 442ft 0kts
10-Aug-18 20:08 47.440929 -122.300268 45 442ft 0kts
10-Aug-18 20:09 47.440929 -122.300268 45 442ft 0kts
10-Aug-18 20:10 47.440929 -122.300268 45 442ft 0kts
10-Aug-18 20:11 47.440929 -122.300268 45 442ft 0kts
10-Aug-18 20:12 47.440929 -122.300268 45 442ft 0kts
10-Aug-18 20:13 47.440929 -122.300268 45 442ft 0kts
10-Aug-18 20:14 47.440929 -122.300268 45 442ft 0kts

Navigation Log

Ident Type
Flight plan parsing failed, navigation log unavailable